NCAR-RAP Real-Time Weather Data

Output produced by METARs form (21 May 2019  11:02 UTC)
found at http://weather.rap.ucar.edu/surface/
 
RJBE 211000Z 33008KT 9999 FEW030 BKN130 22/09 Q1003
RJBE 210900Z 27012KT 9999 FEW025 SCT/// 21/13 Q1003
RJBE 210800Z 27010KT 9999 FEW030 SCT/// 22/12 Q1003
RJBE 210700Z 24007KT 9999 FEW025 BKN/// 22/15 Q1002
RJBE 210600Z 22008KT 9999 FEW025 BKN/// 22/15 Q1002
RJBE 210500Z 22009KT 9999 FEW030 BKN/// 22/16 Q1003
RJBE 210400Z 15008KT 9999 FEW030 BKN/// 23/16 Q1003
RJBE 210300Z 33007KT 270V360 9999 FEW040 BKN/// 23/13 Q1003
RJBE 210200Z 31009KT 9999 FEW025 SCT040 BKN/// 23/13 Q1004
RJBE 210100Z 21010KT 9999 FEW025 SCT040 BKN/// 21/16 Q1004
RJBE 210000Z 18003KT 160V230 9999 FEW020 SCT030 BKN/// 20/15 Q1003
RJBE 202300Z 07011KT 9999 FEW008 SCT020 BKN120 19/16 Q1004
RJBE 202200Z 27007KT 9999 -SHRA FEW004 SCT006 BKN015 19/18 Q1003
RJBE 201200Z 05013KT 9999 -SHRA FEW015 BKN040 BKN060 20/17 Q1003
RJBE 201100Z 08012KT 9999 VCSH FEW015 BKN040 BKN060 20/16 Q1005
RJBE 201000Z 08013KT 9999 VCSH FEW015 BKN040 BKN060 20/16 Q1005
RJBE 200900Z 07012KT 9999 -RA FEW015 BKN050 BKN070 20/16 Q1005
RJBE 200800Z 02003KT 340V060 9999 -RA FEW020 BKN050 BKN070 21/17 Q1006
RJBE 200700Z 26002KT 9999 -RA FEW020 BKN050 BKN070 20/17 Q1007
RJBE 200600Z 26004KT 9999 -RA FEW020 SCT050 BKN070 21/17 Q1007
RJBE 200500Z 28008KT 9999 -RA FEW030 SCT050 BKN070 21/17 Q1008
RJBE 200400Z 27005KT 9999 -RA FEW030 BKN050 BKN070 23/15 Q1008
RJBE 200300Z VRB01KT 9999 -RA FEW025 SCT050 BKN070 23/14 Q1009
RJBE 200200Z VRB02KT 9999 FEW025 SCT050 BKN080 22/14 Q1009
RJBE 200100Z 23003KT 9999 FEW025 SCT040 BKN050 21/17 Q1010
RJBE 200000Z 14003KT 9999 FEW020 SCT050 BKN080 22/17 Q1011
RJBE 192300Z 08009KT 9999 FEW020 SCT090 BKN/// 23/15 Q1011
RJBE 192200Z 06009KT 9999 FEW020 SCT090 BKN/// 21/15 Q1012
RJBE 191200Z VRB02KT 9999 FEW025 BKN/// 20/16 Q1016
RJBE 191100Z 21005KT 150V260 9999 FEW025 BKN/// 21/15 Q1016
RJBE 191000Z 09012KT 9999 FEW025 BKN/// 21/14 Q1015
RJBE 190900Z VRB02KT 9999 FEW025 BKN/// 22/14 Q1015
RJBE 190800Z 28004KT 9999 FEW025 SCT050 BKN/// 22/15 Q1015
RJBE 190700Z 24006KT 9999 FEW030 BKN050 BKN070 21/16 Q1016
RJBE 190600Z 24014KT 9999 FEW030 BKN050 21/16 Q1016
RJBE 190500Z 25007KT 9999 FEW035 SCT060 BKN/// 23/15 Q1016
RJBE 190400Z 23011KT 9999 FEW040 BKN060 21/15 Q1017
RJBE 190300Z 24010KT 9999 FEW040 SCT100 BKN/// 22/15 Q1016
RJBE 190200Z 24010KT 9999 FEW040 BKN/// 22/15 Q1017
RJBE 190100Z 13006KT 100V190 9999 FEW040 BKN/// 23/15 Q1018
RJBE 190000Z 07009KT 9999 FEW040 SCT110 BKN/// 23/13 Q1018